Time;durP1;ratioP1;P1;durP2;ratioP2;P2;SDS_P1;SDS_P2;PMS_P1;PMS_P2;Temp;Humidity;BMP_temperature;BMP_pressure;BME280_temperature;BME280_humidity;BME280_pressure;Samples;Min_cycle;Max_cycle;Signal;HPM_P1;HPM_P2
2021/05/31 00:00:48;;;;;;;8.00;3.33;;;;;;;5.55;nan;102678.31;5065489;28;20398;-87
2021/05/31 00:03:14;;;;;;;6.10;3.30;;;;;;;5.52;nan;102674.16;5051959;28;20029;-87
2021/05/31 00:05:43;;;;;;;8.07;3.88;;;;;;;5.53;nan;102678.47;5046626;28;20023;-89
2021/05/31 00:08:09;;;;;;;8.18;3.97;;;;;;;5.58;nan;102675.34;5052522;28;20059;-90
2021/05/31 00:10:34;;;;;;;7.57;3.40;;;;;;;5.57;nan;102677.16;5053292;28;20028;-89
2021/05/31 00:13:00;;;;;;;6.00;3.75;;;;;;;5.55;nan;102673.81;5060558;28;20031;-88
2021/05/31 00:15:29;;;;;;;7.57;3.50;;;;;;;5.47;nan;102673.84;5052726;28;20040;-89
2021/05/31 00:17:54;;;;;;;6.53;3.65;;;;;;;5.43;nan;102673.34;5055452;28;20123;-88
2021/05/31 00:20:20;;;;;;;8.93;3.83;;;;;;;5.37;nan;102670.50;5054875;28;20115;-87
2021/05/31 00:22:46;;;;;;;6.18;3.28;;;;;;;5.26;nan;102673.53;5061629;28;20028;-88
2021/05/31 00:25:13;;;;;;;6.90;3.70;;;;;;;5.24;nan;102675.50;5057841;28;20021;-87
2021/05/31 00:27:39;;;;;;;5.18;3.40;;;;;;;5.21;nan;102682.00;5056386;28;20093;-87
2021/05/31 00:30:07;;;;;;;5.32;3.22;;;;;;;5.12;nan;102675.81;5056379;28;20150;-87
2021/05/31 00:32:33;;;;;;;9.68;3.65;;;;;;;5.09;nan;102678.00;5058594;28;20031;-88
2021/05/31 00:34:58;;;;;;;10.80;3.95;;;;;;;5.01;nan;102675.31;5050156;28;20029;-87
2021/05/31 00:37:27;;;;;;;9.10;3.65;;;;;;;4.97;nan;102669.50;5048963;28;20020;-87
2021/05/31 00:39:52;;;;;;;5.78;3.55;;;;;;;4.94;nan;102666.34;5060782;28;20656;-87
2021/05/31 00:42:18;;;;;;;7.60;3.53;;;;;;;4.94;nan;102667.19;5056283;28;20111;-86
2021/05/31 00:44:43;;;;;;;5.03;3.75;;;;;;;4.86;nan;102664.53;5050242;28;20044;-88
2021/05/31 00:47:09;;;;;;;6.03;3.85;;;;;;;4.84;nan;102658.50;5050781;28;20059;-89
2021/05/31 00:49:38;;;;;;;7.18;3.85;;;;;;;4.76;nan;102659.34;5066713;28;20024;-88
2021/05/31 00:52:08;;;;;;;9.82;4.63;;;;;;;4.74;nan;102653.38;5055115;28;20098;-88
2021/05/31 00:54:35;;;;;;;6.30;3.95;;;;;;;4.74;nan;102657.84;5064603;28;20036;-88
2021/05/31 00:57:01;;;;;;;7.40;4.35;;;;;;;4.69;nan;102654.84;5057169;28;20028;-87
2021/05/31 00:59:26;;;;;;;9.27;4.60;;;;;;;4.68;nan;102655.84;5056107;28;20089;-88
2021/05/31 01:01:52;;;;;;;7.60;3.92;;;;;;;4.57;nan;102653.50;5058179;28;20024;-87
2021/05/31 01:04:19;;;;;;;8.38;4.18;;;;;;;4.58;nan;102650.66;5054306;28;20039;-87
2021/05/31 01:06:56;;;;;;;8.25;3.90;;;;;;;4.55;nan;102649.16;5054658;28;20058;-88
2021/05/31 01:09:32;;;;;;;6.45;4.10;;;;;;;4.50;nan;102638.22;5050312;28;20037;-88
2021/05/31 01:12:14;;;;;;;8.63;3.85;;;;;;;4.35;nan;102637.16;5072197;28;20017;-88
2021/05/31 01:14:57;;;;;;;8.40;3.67;;;;;;;4.37;nan;102639.66;5047602;28;20029;-86
2021/05/31 01:17:31;;;;;;;7.43;4.35;;;;;;;4.26;nan;102643.44;5053320;28;20036;-89
2021/05/31 01:20:12;;;;;;;7.55;4.13;;;;;;;4.15;nan;102641.06;5055103;28;20051;-88
2021/05/31 01:22:43;;;;;;;11.77;4.55;;;;;;;4.15;nan;102641.06;5073625;28;20123;-88
2021/05/31 01:25:21;;;;;;;8.88;4.47;;;;;;;4.14;nan;102639.41;5044218;28;20056;-89
2021/05/31 01:28:08;;;;;;;7.97;4.32;;;;;;;4.13;nan;102643.03;5052984;28;20029;-89
2021/05/31 01:30:35;;;;;;;8.40;3.75;;;;;;;4.06;nan;102644.66;5057049;28;20056;-88
2021/05/31 01:33:05;;;;;;;7.60;3.95;;;;;;;4.00;nan;102653.28;5064472;28;20020;-88
2021/05/31 01:35:34;;;;;;;6.93;4.13;;;;;;;3.86;nan;102650.22;5048187;28;20135;-90
2021/05/31 01:38:03;;;;;;;7.13;3.72;;;;;;;3.93;nan;102648.56;5074431;28;20016;-88
2021/05/31 01:40:29;;;;;;;5.78;4.00;;;;;;;4.00;nan;102661.22;5054779;28;20494;-88
2021/05/31 01:43:00;;;;;;;7.32;3.65;;;;;;;3.93;nan;102648.56;5047928;28;20090;-88
2021/05/31 01:45:26;;;;;;;9.10;4.32;;;;;;;3.92;nan;102652.22;5067739;28;20017;-88
2021/05/31 01:48:03;;;;;;;14.55;5.15;;;;;;;3.78;nan;102647.53;5057315;28;20028;-88
2021/05/31 01:50:28;;;;;;;11.02;4.75;;;;;;;3.86;nan;102644.06;5056458;28;20543;-89
2021/05/31 01:52:54;;;;;;;8.38;4.63;;;;;;;3.82;nan;102646.22;5057301;28;20036;-88
2021/05/31 01:55:21;;;;;;;8.80;3.80;;;;;;;3.73;nan;102651.59;5053717;28;20034;-88
2021/05/31 01:57:48;;;;;;;10.32;4.03;;;;;;;3.70;nan;102652.75;5061511;28;20409;-87
2021/05/31 02:00:16;;;;;;;10.55;4.15;;;;;;;3.65;nan;102652.41;5049674;28;20024;-88
2021/05/31 02:02:42;;;;;;;5.40;3.17;;;;;;;3.68;nan;102649.44;5050285;28;20593;-89
2021/05/31 02:05:22;;;;;;;11.30;4.13;;;;;;;3.53;nan;102656.28;5060101;28;20025;-89
2021/05/31 02:07:49;;;;;;;7.15;4.07;;;;;;;3.54;nan;102653.47;5060091;28;20028;-89
2021/05/31 02:10:15;;;;;;;9.50;4.00;;;;;;;3.54;nan;102658.78;5053127;28;20564;-88
2021/05/31 02:12:52;;;;;;;9.10;4.22;;;;;;;3.39;nan;102649.72;5069232;28;20029;-88
2021/05/31 02:15:42;;;;;;;8.00;4.13;;;;;;;3.47;nan;102654.25;5047395;28;20518;-87
2021/05/31 02:18:17;;;;;;;8.93;4.20;;;;;;;3.53;nan;102650.97;5063952;28;20029;-87
2021/05/31 02:20:45;;;;;;;7.57;4.22;;;;;;;3.58;nan;102646.88;5056618;28;20075;-88
2021/05/31 02:23:14;;;;;;;10.25;4.53;;;;;;;3.62;nan;102647.41;5055397;28;20031;-90
2021/05/31 02:25:41;;;;;;;9.07;4.25;;;;;;;3.55;nan;102639.22;5066672;28;20008;-91
2021/05/31 02:28:15;;;;;;;7.55;4.10;;;;;;;3.56;nan;102648.03;5050915;28;20048;-89
2021/05/31 02:30:41;;;;;;;8.88;3.83;;;;;;;3.52;nan;102649.31;5064586;28;20029;-88
2021/05/31 02:33:07;;;;;;;7.38;4.05;;;;;;;3.43;nan;102644.97;5050006;28;20032;-88
2021/05/31 02:35:36;;;;;;;9.57;4.47;;;;;;;3.40;nan;102651.38;5059594;28;20028;-87
2021/05/31 02:38:03;;;;;;;9.68;4.22;;;;;;;3.44;nan;102649.28;5055909;28;20085;-88
2021/05/31 02:40:30;;;;;;;7.47;4.78;;;;;;;3.46;nan;102648.13;5055946;28;20779;-88
2021/05/31 02:43:00;;;;;;;8.15;4.65;;;;;;;3.39;nan;102648.88;5055906;28;20048;-88
2021/05/31 02:45:27;;;;;;;8.75;4.00;;;;;;;3.41;nan;102647.78;5055890;28;20023;-88
2021/05/31 02:47:54;;;;;;;9.32;4.45;;;;;;;3.34;nan;102641.41;5045083;28;20025;-88
2021/05/31 02:50:20;;;;;;;7.65;5.40;;;;;;;3.34;nan;102652.84;5055508;28;20039;-88
2021/05/31 02:52:46;;;;;;;8.90;4.38;;;;;;;3.36;nan;102649.19;5058696;28;20039;-87
2021/05/31 02:55:18;;;;;;;10.32;4.82;;;;;;;3.33;nan;102651.19;5066740;28;20478;-88
2021/05/31 02:57:44;;;;;;;7.80;4.70;;;;;;;3.35;nan;102648.38;5072204;28;20048;-88
2021/05/31 03:00:12;;;;;;;9.60;4.70;;;;;;;3.37;nan;102651.69;5076312;28;20556;-89
2021/05/31 03:02:38;;;;;;;7.75;4.15;;;;;;;3.40;nan;102653.19;5055290;28;20378;-88
2021/05/31 03:05:06;;;;;;;9.50;4.78;;;;;;;3.40;nan;102647.91;5055310;28;20023;-88
2021/05/31 03:07:31;;;;;;;10.05;4.85;;;;;;;3.39;nan;102651.53;5055084;28;20031;-88
2021/05/31 03:09:57;;;;;;;11.07;5.20;;;;;;;3.37;nan;102653.50;5052105;28;20032;-87
2021/05/31 03:12:23;;;;;;;11.07;4.60;;;;;;;3.43;nan;102658.22;5048802;28;20031;-87
2021/05/31 03:14:51;;;;;;;10.20;4.47;;;;;;;3.46;nan;102656.09;5056055;28;20899;-86
2021/05/31 03:17:19;;;;;;;8.25;4.93;;;;;;;3.46;nan;102655.25;5048110;28;20032;-87
2021/05/31 03:19:45;;;;;;;9.25;4.35;;;;;;;3.55;nan;102654.31;5052775;28;20443;-88
2021/05/31 03:22:11;;;;;;;8.43;4.45;;;;;;;3.60;nan;102646.75;5054115;28;20111;-87
2021/05/31 03:24:36;;;;;;;12.95;5.00;;;;;;;3.62;nan;102644.75;5056960;28;20050;-88
2021/05/31 03:27:03;;;;;;;9.93;5.55;;;;;;;3.76;nan;102640.69;5065400;28;20022;-87
2021/05/31 03:29:29;;;;;;;14.07;5.90;;;;;;;3.91;nan;102647.06;5048515;28;20078;-87
2021/05/31 03:31:54;;;;;;;10.77;5.82;;;;;;;3.97;nan;102649.13;5076042;28;20025;-88
2021/05/31 03:34:20;;;;;;;14.13;5.38;;;;;;;4.09;nan;102636.38;5058521;28;20021;-88
2021/05/31 03:36:45;;;;;;;8.85;5.05;;;;;;;4.26;nan;102640.78;5052392;28;20067;-88
2021/05/31 03:39:11;;;;;;;7.47;4.50;;;;;;;4.42;nan;102648.78;5058460;28;20059;-89
2021/05/31 03:41:38;;;;;;;7.63;4.35;;;;;;;4.63;nan;102647.53;5052108;28;20482;-88
2021/05/31 03:44:04;;;;;;;8.43;4.50;;;;;;;4.80;nan;102646.56;5065546;28;20564;-88
2021/05/31 03:46:30;;;;;;;8.95;4.53;;;;;;;4.88;nan;102649.25;5065826;28;20056;-88
2021/05/31 03:48:55;;;;;;;7.68;4.63;;;;;;;4.95;nan;102641.44;5056126;28;20031;-88
2021/05/31 03:51:21;;;;;;;7.25;4.35;;;;;;;5.13;nan;102645.59;5053773;28;20032;-87
2021/05/31 03:53:47;;;;;;;10.05;4.80;;;;;;;5.15;nan;102645.44;5058610;28;20083;-88
2021/05/31 03:56:12;;;;;;;8.57;5.03;;;;;;;5.25;nan;102646.13;5054766;28;20537;-88
2021/05/31 03:58:40;;;;;;;8.00;4.15;;;;;;;5.37;nan;102644.75;5058328;28;20036;-87
2021/05/31 04:01:07;;;;;;;6.63;3.97;;;;;;;5.51;nan;102648.56;5063552;28;20039;-87
2021/05/31 04:03:33;;;;;;;8.68;4.15;;;;;;;5.70;nan;102650.88;5048763;28;20024;-87
2021/05/31 04:11:35;;;;;;;10.38;4.32;;;;;;;6.10;nan;102654.44;5060819;28;20087;-88
2021/05/31 04:14:11;;;;;;;8.68;4.57;;;;;;;6.26;nan;102650.88;5054507;28;20035;-88
2021/05/31 04:16:43;;;;;;;9.57;4.32;;;;;;;6.45;nan;102653.13;5060278;28;20426;-88
2021/05/31 04:19:10;;;;;;;12.93;5.03;;;;;;;6.50;nan;102655.28;5057684;28;20031;-88
2021/05/31 04:21:37;;;;;;;7.85;4.15;;;;;;;6.67;nan;102651.53;5036769;28;20021;-89
2021/05/31 04:24:03;;;;;;;9.13;4.50;;;;;;;6.82;nan;102644.44;5034905;28;20028;-88
2021/05/31 04:26:30;;;;;;;6.90;4.18;;;;;;;6.98;nan;102652.28;5045166;28;20032;-88
2021/05/31 04:28:56;;;;;;;8.75;4.50;;;;;;;7.10;nan;102659.88;5064849;28;20066;-89
2021/05/31 04:31:24;;;;;;;7.22;3.90;;;;;;;7.17;nan;102658.16;5055686;28;20578;-90
2021/05/31 04:33:50;;;;;;;6.53;3.95;;;;;;;7.33;nan;102655.34;5055411;28;20082;-88
2021/05/31 04:36:16;;;;;;;10.30;4.20;;;;;;;7.47;nan;102656.41;5057288;28;20516;-89
2021/05/31 04:38:41;;;;;;;7.55;4.38;;;;;;;7.61;nan;102652.94;5060047;28;20062;-90
2021/05/31 04:41:07;;;;;;;7.68;3.90;;;;;;;7.68;nan;102647.69;5053392;28;20013;-89
2021/05/31 04:43:42;;;;;;;7.13;3.78;;;;;;;7.85;nan;102651.84;5051990;28;20040;-88
2021/05/31 04:46:07;;;;;;;10.63;4.93;;;;;;;8.02;nan;102650.66;5076532;28;20020;-88
2021/05/31 04:48:33;;;;;;;7.13;4.60;;;;;;;8.16;nan;102649.84;5059084;28;20479;-89
2021/05/31 04:51:01;;;;;;;6.85;4.20;;;;;;;8.31;nan;102644.47;5058535;28;20033;-87
2021/05/31 04:53:28;;;;;;;7.82;4.32;;;;;;;8.44;nan;102641.19;5061559;28;20628;-89
2021/05/31 04:55:55;;;;;;;8.00;4.20;;;;;;;8.58;nan;102640.28;5062256;28;20667;-87
2021/05/31 04:58:24;;;;;;;8.50;3.90;;;;;;;8.73;nan;102643.75;5061524;28;20703;-88
2021/05/31 05:00:50;;;;;;;5.80;3.92;;;;;;;8.84;nan;102641.59;5054420;28;20043;-88
2021/05/31 05:03:20;;;;;;;6.90;3.55;;;;;;;8.96;nan;102638.22;5057753;28;20044;-90
2021/05/31 05:05:49;;;;;;;7.25;3.60;;;;;;;9.12;nan;102641.66;5056332;28;20058;-88
2021/05/31 05:08:15;;;;;;;5.63;3.55;;;;;;;9.24;nan;102640.94;5064396;28;20028;-89
2021/05/31 05:10:41;;;;;;;5.82;3.85;;;;;;;9.40;nan;102645.19;5055822;28;20417;-89
2021/05/31 05:13:07;;;;;;;5.32;3.60;;;;;;;9.57;nan;102648.41;5077426;28;20009;-90
2021/05/31 05:15:34;;;;;;;6.53;4.10;;;;;;;9.70;nan;102651.19;5068726;28;20059;-88
2021/05/31 05:18:00;;;;;;;7.00;4.30;;;;;;;9.87;nan;102660.53;5054292;28;20466;-88
2021/05/31 05:20:27;;;;;;;5.90;3.38;;;;;;;10.04;nan;102653.03;5056333;28;20082;-88
2021/05/31 05:22:54;;;;;;;6.72;3.60;;;;;;;10.16;nan;102650.63;5064807;28;20017;-88
2021/05/31 05:25:20;;;;;;;6.30;3.00;;;;;;;10.29;nan;102648.88;5049190;28;20029;-88
2021/05/31 05:27:49;;;;;;;5.05;3.00;;;;;;;10.40;nan;102652.81;5058019;28;20078;-88
2021/05/31 05:30:19;;;;;;;6.32;3.65;;;;;;;10.53;nan;102642.13;5064434;28;20025;-88
2021/05/31 05:32:49;;;;;;;5.43;3.20;;;;;;;10.71;nan;102643.44;5054142;28;20028;-88
2021/05/31 05:48:17;;;;;;;5.18;3.00;;;;;;;11.50;nan;102632.78;5075199;28;20028;-89
2021/05/31 05:50:43;;;;;;;8.13;3.50;;;;;;;11.65;nan;102641.41;5057796;28;20086;-89
2021/05/31 05:53:08;;;;;;;7.80;3.60;;;;;;;11.70;nan;102648.84;5054176;28;20490;-88
2021/05/31 05:55:34;;;;;;;8.45;3.75;;;;;;;11.82;nan;102641.00;5048352;28;20027;-90
2021/05/31 05:58:00;;;;;;;8.95;4.45;;;;;;;12.00;nan;102643.84;5058686;28;20029;-88
2021/05/31 06:00:29;;;;;;;5.38;3.47;;;;;;;12.14;nan;102640.06;5051540;28;20541;-88
2021/05/31 06:02:57;;;;;;;7.13;3.67;;;;;;;12.19;nan;102642.94;5049791;28;20027;-88
2021/05/31 06:05:25;;;;;;;6.30;3.33;;;;;;;12.42;nan;102641.63;5056689;28;20080;-89
2021/05/31 06:07:51;;;;;;;4.28;3.33;;;;;;;12.58;nan;102644.66;5068483;28;20078;-88
2021/05/31 06:10:18;;;;;;;7.60;3.40;;;;;;;12.74;nan;102640.59;5060941;28;20396;-90
2021/05/31 06:12:46;;;;;;;6.05;3.47;;;;;;;12.93;nan;102637.00;5060206;28;20020;-89
2021/05/31 06:15:13;;;;;;;8.35;3.35;;;;;;;13.06;nan;102638.72;5065071;28;20024;-89
2021/05/31 06:17:39;;;;;;;4.95;3.33;;;;;;;13.19;nan;102637.84;5059989;28;20307;-89
2021/05/31 06:20:05;;;;;;;5.70;3.30;;;;;;;13.33;nan;102639.41;5056262;28;20017;-88
2021/05/31 06:22:34;;;;;;;6.25;3.58;;;;;;;13.46;nan;102644.63;5051944;28;20602;-90
2021/05/31 06:25:00;;;;;;;5.55;3.00;;;;;;;13.65;nan;102640.13;5058902;28;20031;-88
2021/05/31 06:27:26;;;;;;;7.88;3.50;;;;;;;13.70;nan;102639.47;5054848;28;20021;-89
2021/05/31 06:29:52;;;;;;;6.88;3.83;;;;;;;13.88;nan;102639.47;5056521;28;20466;-89
2021/05/31 06:32:17;;;;;;;5.03;3.08;;;;;;;14.06;nan;102639.47;5060226;28;20021;-88
2021/05/31 06:34:43;;;;;;;6.40;3.25;;;;;;;14.20;nan;102640.16;5053912;28;20368;-88
2021/05/31 06:37:12;;;;;;;4.80;3.13;;;;;;;14.31;nan;102639.38;5049535;28;20028;-89
2021/05/31 06:39:37;;;;;;;5.40;2.97;;;;;;;14.47;nan;102643.34;5047110;28;20069;-89
2021/05/31 06:42:05;;;;;;;4.80;3.13;;;;;;;14.63;nan;102634.63;5049341;28;20060;-88
2021/05/31 06:44:30;;;;;;;4.63;3.08;;;;;;;14.80;nan;102641.03;5068783;28;20463;-89
2021/05/31 06:46:56;;;;;;;7.15;2.97;;;;;;;14.85;nan;102640.31;5050867;28;20111;-88
2021/05/31 06:49:23;;;;;;;7.60;3.17;;;;;;;15.00;nan;102646.13;5050741;28;20166;-89
2021/05/31 06:51:48;;;;;;;7.75;2.72;;;;;;;15.08;nan;102642.25;5051990;28;20055;-90
2021/05/31 06:54:14;;;;;;;6.03;3.00;;;;;;;15.24;nan;102635.34;5067484;28;20060;-89
2021/05/31 06:56:40;;;;;;;4.80;3.08;;;;;;;15.38;nan;102636.78;5049532;28;20024;-89
2021/05/31 06:59:05;;;;;;;4.00;2.47;;;;;;;15.54;nan;102629.84;5055164;28;20017;-89
2021/05/31 07:01:31;;;;;;;5.20;2.80;;;;;;;15.71;nan;102631.63;5050110;28;20063;-90
2021/05/31 07:03:57;;;;;;;4.18;2.63;;;;;;;15.86;nan;102623.03;5051046;28;20066;-89
2021/05/31 07:06:23;;;;;;;4.75;2.60;;;;;;;15.92;nan;102624.78;5045605;28;20441;-89
2021/05/31 07:08:48;;;;;;;4.05;2.30;;;;;;;16.09;nan;102621.34;5048958;28;20032;-90
2021/05/31 07:11:17;;;;;;;4.35;2.50;;;;;;;16.17;nan;102618.28;5047212;28;20032;-89
2021/05/31 07:13:43;;;;;;;7.78;2.72;;;;;;;16.34;nan;102616.44;5043426;28;20016;-90
2021/05/31 07:16:12;;;;;;;4.75;2.60;;;;;;;16.48;nan;102614.25;5062735;28;20557;-89
2021/05/31 07:18:41;;;;;;;5.82;2.50;;;;;;;16.61;nan;102605.84;5053142;28;20033;-89
2021/05/31 07:21:07;;;;;;;4.25;2.40;;;;;;;16.69;nan;102610.06;5048548;28;20029;-89
2021/05/31 07:23:38;;;;;;;4.78;2.40;;;;;;;16.79;nan;102608.38;5042426;28;20033;-89
2021/05/31 07:26:09;;;;;;;5.45;1.90;;;;;;;16.85;nan;102615.50;5049436;28;20024;-89
2021/05/31 07:28:34;;;;;;;4.03;2.55;;;;;;;16.96;nan;102616.50;5049550;28;20021;-90
2021/05/31 07:31:00;;;;;;;3.80;2.42;;;;;;;17.05;nan;102609.59;5052342;28;20047;-89
2021/05/31 07:33:26;;;;;;;6.97;2.72;;;;;;;17.26;nan;102607.25;5043774;28;20091;-90
2021/05/31 07:35:53;;;;;;;3.80;2.13;;;;;;;17.42;nan;102609.13;5046596;28;20474;-90
2021/05/31 07:38:21;;;;;;;3.33;1.98;;;;;;;17.44;nan;102601.56;5047591;28;20094;-89
2021/05/31 07:40:50;;;;;;;6.10;2.03;;;;;;;17.53;nan;102603.56;5045760;28;20027;-89
2021/05/31 07:43:15;;;;;;;4.97;2.10;;;;;;;17.70;nan;102595.44;5068492;28;20091;-89
2021/05/31 07:45:41;;;;;;;2.58;1.70;;;;;;;17.82;nan;102603.47;5053267;28;20121;-91
2021/05/31 07:48:07;;;;;;;4.13;1.38;;;;;;;17.93;nan;102597.06;5073502;28;20107;-91
2021/05/31 07:50:33;;;;;;;2.72;1.48;;;;;;;17.97;nan;102592.00;5055771;28;20405;-90
2021/05/31 07:52:59;;;;;;;2.92;1.67;;;;;;;18.09;nan;102598.06;5053858;28;20024;-89
2021/05/31 07:55:27;;;;;;;4.43;1.60;;;;;;;18.24;nan;102597.44;5053686;28;20028;-89
2021/05/31 07:57:53;;;;;;;2.78;1.70;;;;;;;18.28;nan;102591.25;5041545;28;20032;-91
2021/05/31 08:00:22;;;;;;;6.05;1.90;;;;;;;18.47;nan;102589.00;5056994;28;20032;-89
2021/05/31 08:02:49;;;;;;;5.72;1.55;;;;;;;18.44;nan;102592.22;5055608;28;20107;-89
2021/05/31 08:05:18;;;;;;;4.55;1.80;;;;;;;18.49;nan;102591.44;5065408;28;20059;-89
2021/05/31 08:07:45;;;;;;;2.30;1.20;;;;;;;18.62;nan;102582.91;5068059;28;20028;-90
2021/05/31 08:10:12;;;;;;;3.03;1.50;;;;;;;18.70;nan;102585.19;5064782;28;20363;-89
2021/05/31 08:12:38;;;;;;;2.55;1.65;;;;;;;18.88;nan;102576.66;5064672;28;20101;-90
2021/05/31 08:15:06;;;;;;;5.80;2.00;;;;;;;18.92;nan;102577.78;5056837;28;20494;-89
2021/05/31 08:17:31;;;;;;;5.93;1.88;;;;;;;19.08;nan;102583.31;5044460;28;20033;-90
2021/05/31 08:19:57;;;;;;;4.65;1.52;;;;;;;19.18;nan;102584.19;5050631;28;20020;-90
2021/05/31 08:22:23;;;;;;;3.53;2.13;;;;;;;19.15;nan;102575.75;5047266;28;20059;-90
2021/05/31 08:24:49;;;;;;;1.73;1.60;;;;;;;18.78;nan;102576.56;5051510;28;20728;-89
2021/05/31 08:27:14;;;;;;;3.20;1.73;;;;;;;19.00;nan;102576.44;5053516;28;20479;-91
2021/05/31 08:29:40;;;;;;;3.33;2.15;;;;;;;19.28;nan;102578.03;5055305;28;20058;-90
2021/05/31 08:32:06;;;;;;;3.70;1.92;;;;;;;19.48;nan;102572.69;5046392;28;20035;-89
2021/05/31 08:34:32;;;;;;;2.75;1.70;;;;;;;19.68;nan;102576.63;5044718;28;20448;-89
2021/05/31 08:36:57;;;;;;;4.00;1.67;;;;;;;19.83;nan;102571.28;5050001;28;20059;-90
2021/05/31 08:39:23;;;;;;;2.15;1.85;;;;;;;19.89;nan;102579.16;5063043;28;20024;-90
2021/05/31 08:41:51;;;;;;;1.55;1.42;;;;;;;19.98;nan;102573.22;5055372;28;20421;-90
2021/05/31 08:44:20;;;;;;;3.63;1.60;;;;;;;20.02;nan;102572.44;5048060;28;20021;-89
2021/05/31 08:46:46;;;;;;;3.38;2.20;;;;;;;20.05;nan;102571.88;5062427;28;20033;-90
2021/05/31 08:49:16;;;;;;;3.95;1.50;;;;;;;20.04;nan;102569.44;5063530;28;20237;-89
2021/05/31 08:51:43;;;;;;;3.67;1.60;;;;;;;20.03;nan;102565.91;5043832;28;20035;-89
2021/05/31 08:54:18;;;;;;;4.95;1.80;;;;;;;20.14;nan;102567.56;5052794;28;20020;-88
2021/05/31 08:56:44;;;;;;;2.20;1.45;;;;;;;20.29;nan;102560.50;5046148;28;20594;-89
2021/05/31 08:59:09;;;;;;;2.60;1.60;;;;;;;20.27;nan;102563.50;5056842;28;20024;-88
2021/05/31 09:01:35;;;;;;;5.13;1.70;;;;;;;20.36;nan;102551.00;5052462;28;20505;-88
2021/05/31 09:04:01;;;;;;;3.35;1.50;;;;;;;20.46;nan;102555.66;5055007;28;20031;-88
2021/05/31 09:06:27;;;;;;;2.42;1.52;;;;;;;20.34;nan;102555.09;5051719;28;20027;-89
2021/05/31 09:08:55;;;;;;;5.13;1.50;;;;;;;20.00;nan;102547.38;5052846;28;20077;-90
2021/05/31 09:15:27;;;;;;;5.57;1.90;;;;;;;20.50;nan;102543.97;5064016;28;20035;-90
2021/05/31 09:35:54;;;;;;;4.50;1.73;;;;;;;21.19;nan;102523.50;4859538;29;20037;-89
2021/05/31 10:10:47;;;;;;;5.38;1.73;;;;;;;22.45;nan;102498.59;4828937;29;20042;-90
2021/05/31 10:27:36;;;;;;;6.57;1.50;;;;;;;22.78;nan;102485.97;4878223;29;20036;-88
2021/05/31 10:48:09;;;;;;;3.17;1.60;;;;;;;22.64;nan;102457.72;4852248;29;20064;-89
2021/05/31 10:55:25;;;;;;;1.42;1.10;;;;;;;22.38;nan;102444.28;4837435;29;20068;-89
2021/05/31 11:02:10;;;;;;;2.03;1.08;;;;;;;22.49;nan;102445.03;4802836;29;20049;-89
2021/05/31 11:05:38;;;;;;;2.42;1.40;;;;;;;21.87;nan;102443.84;4839752;29;20098;-89
2021/05/31 11:09:24;;;;;;;1.45;1.30;;;;;;;22.47;nan;102433.56;4860182;29;20113;-89
2021/05/31 11:12:57;;;;;;;3.15;1.13;;;;;;;22.44;nan;102428.66;4861103;29;20030;-89
2021/05/31 11:16:28;;;;;;;1.95;1.35;;;;;;;23.16;nan;102433.13;4819173;29;20066;-89
2021/05/31 11:23:16;;;;;;;4.50;1.50;;;;;;;23.85;nan;102435.47;4853673;29;20526;-88
2021/05/31 11:33:17;;;;;;;7.70;1.80;;;;;;;24.40;nan;102412.69;4873723;29;20051;-89
2021/05/31 11:36:48;;;;;;;1.60;1.40;;;;;;;24.51;nan;102413.31;4846151;29;20038;-89
2021/05/31 11:44:08;;;;;;;2.08;1.08;;;;;;;24.82;nan;102413.56;4818703;29;20041;-89
2021/05/31 11:47:30;;;;;;;3.60;1.20;;;;;;;23.66;nan;102411.69;4833566;29;20046;-88
2021/05/31 11:54:31;;;;;;;1.90;1.20;;;;;;;24.35;nan;102401.81;4852217;29;20454;-89
2021/05/31 12:01:14;;;;;;;2.33;1.50;;;;;;;24.72;nan;102391.81;4840933;29;20036;-90
2021/05/31 12:04:36;;;;;;;2.88;1.88;;;;;;;24.98;nan;102386.66;4851980;29;20102;-89
2021/05/31 12:08:10;;;;;;;1.60;1.48;;;;;;;25.05;nan;102378.03;4859835;29;20034;-89
2021/05/31 12:18:46;;;;;;;2.03;1.00;;;;;;;25.34;nan;102370.28;4874874;29;20762;-90
2021/05/31 12:21:11;;;;;;;1.55;1.33;;;;;;;25.51;nan;102369.63;4861885;29;20037;-89
2021/05/31 12:23:37;;;;;;;3.40;1.30;;;;;;;25.56;nan;102367.56;4932304;28;20060;-89
2021/05/31 12:26:05;;;;;;;2.22;1.40;;;;;;;25.68;nan;102366.22;5014614;28;20033;-89
2021/05/31 12:28:33;;;;;;;4.75;1.60;;;;;;;25.74;nan;102356.75;5029575;28;20089;-91
2021/05/31 12:31:00;;;;;;;2.40;1.40;;;;;;;25.79;nan;102364.84;5055363;28;20043;-90
2021/05/31 12:33:25;;;;;;;4.70;1.60;;;;;;;25.97;nan;102355.59;5059219;28;20048;-89
2021/05/31 12:35:51;;;;;;;5.90;1.60;;;;;;;26.19;nan;102361.06;5049338;28;20060;-89
2021/05/31 12:38:18;;;;;;;3.15;1.73;;;;;;;27.69;nan;102365.56;5053530;28;20103;-90
2021/05/31 12:40:44;;;;;;;2.53;1.55;;;;;;;30.32;nan;102342.78;5048379;28;20050;-89
2021/05/31 12:43:10;;;;;;;3.42;1.83;;;;;;;33.19;nan;102333.69;5053577;28;20033;-90
2021/05/31 12:45:44;;;;;;;3.13;1.70;;;;;;;33.10;nan;102333.09;5048927;28;20024;-89
2021/05/31 12:48:19;;;;;;;2.30;1.38;;;;;;;35.12;nan;102325.53;5048678;28;20055;-89
2021/05/31 12:50:51;;;;;;;3.97;1.95;;;;;;;37.44;nan;102319.03;5049988;28;20024;-89
2021/05/31 12:53:17;;;;;;;2.55;1.33;;;;;;;37.10;nan;102315.72;5068007;28;20021;-90
2021/05/31 12:55:44;;;;;;;4.88;1.80;;;;;;;35.57;nan;102323.69;5066950;28;20046;-89
2021/05/31 12:58:13;;;;;;;4.75;1.80;;;;;;;37.12;nan;102310.53;5056608;28;20406;-89
2021/05/31 13:00:40;;;;;;;3.20;1.60;;;;;;;39.64;nan;102319.88;5052126;28;20174;-90
2021/05/31 13:03:07;;;;;;;3.67;1.85;;;;;;;40.60;nan;102299.44;5053563;28;20028;-91
2021/05/31 13:05:35;;;;;;;1.58;1.48;;;;;;;42.05;nan;102304.22;5060044;28;20067;-90
2021/05/31 13:08:04;;;;;;;3.28;1.75;;;;;;;41.89;nan;102296.44;5049011;28;20027;-89
2021/05/31 13:10:32;;;;;;;2.30;1.30;;;;;;;42.50;nan;102296.97;5051824;28;20042;-90
2021/05/31 13:13:03;;;;;;;3.88;1.45;;;;;;;43.52;nan;102291.56;5056583;28;20044;-90
2021/05/31 13:15:39;;;;;;;4.05;1.20;;;;;;;43.46;nan;102296.94;5052985;28;20036;-90
2021/05/31 13:18:19;;;;;;;3.55;1.55;;;;;;;42.78;nan;102284.31;5051693;28;20021;-90
2021/05/31 13:20:45;;;;;;;3.55;1.55;;;;;;;41.33;nan;102282.06;5055371;28;20089;-90
2021/05/31 13:23:19;;;;;;;2.45;1.65;;;;;;;41.28;nan;102276.88;5052896;28;20020;-89
2021/05/31 13:25:47;;;;;;;2.83;1.88;;;;;;;38.40;nan;102282.75;5047450;28;20086;-90
2021/05/31 13:28:21;;;;;;;2.25;1.48;;;;;;;39.31;nan;102270.81;5071216;28;20029;-90
2021/05/31 13:30:53;;;;;;;3.42;1.35;;;;;;;40.05;nan;102267.47;5052187;28;20028;-90
2021/05/31 13:33:28;;;;;;;2.03;1.25;;;;;;;42.46;nan;102267.25;5065610;28;20444;-90
2021/05/31 13:35:58;;;;;;;2.78;1.70;;;;;;;44.22;nan;102255.09;5051181;28;20090;-91
2021/05/31 13:38:28;;;;;;;3.97;1.40;;;;;;;45.44;nan;102252.25;5072036;28;20710;-93
2021/05/31 13:40:54;;;;;;;4.07;1.63;;;;;;;43.33;nan;102254.53;5054040;28;20091;-93
2021/05/31 13:43:22;;;;;;;1.70;1.48;;;;;;;43.59;nan;102260.34;5067640;28;20060;-90
2021/05/31 13:46:41;;;;;;;3.65;1.80;;;;;;;43.00;nan;102253.66;5073066;28;20503;-92
2021/05/31 13:49:17;;;;;;;2.65;1.58;;;;;;;44.10;nan;102252.19;5073731;28;20032;-92
2021/05/31 13:51:58;;;;;;;3.15;1.52;;;;;;;45.26;nan;102246.38;5074616;28;20633;-92
2021/05/31 13:54:24;;;;;;;4.00;1.80;;;;;;;44.75;nan;102247.09;5073266;28;20028;-93
2021/05/31 13:56:54;;;;;;;2.15;1.60;;;;;;;44.41;nan;102239.22;5071662;28;20020;-93
2021/05/31 13:59:19;;;;;;;8.20;2.20;;;;;;;43.01;nan;102241.16;5049994;28;20028;-94
2021/05/31 14:01:46;;;;;;;4.63;2.03;;;;;;;42.41;nan;102228.31;5056400;28;20409;-93
2021/05/31 14:04:17;;;;;;;3.53;2.00;;;;;;;43.78;nan;102234.06;5070331;28;20111;-93
2021/05/31 14:06:43;;;;;;;3.10;1.90;;;;;;;43.91;nan;102231.31;5073556;28;20028;-91
2021/05/31 14:09:11;;;;;;;3.22;1.80;;;;;;;45.22;nan;102223.03;5060486;28;20244;-89
2021/05/31 14:11:37;;;;;;;3.38;1.90;;;;;;;47.27;nan;102218.75;5056104;28;20024;-89
2021/05/31 14:14:41;;;;;;;3.97;1.90;;;;;;;42.89;nan;102212.81;5056800;28;20036;-92
2021/05/31 14:17:17;;;;;;;2.80;1.88;;;;;;;45.44;nan;102209.78;5048341;28;20051;-89
2021/05/31 14:19:43;;;;;;;2.90;1.92;;;;;;;42.48;nan;102202.81;5056263;28;20033;-90
2021/05/31 14:22:11;;;;;;;3.45;1.88;;;;;;;44.50;nan;102202.63;5055878;28;20033;-88
2021/05/31 14:24:39;;;;;;;2.72;1.75;;;;;;;42.83;nan;102190.78;5055377;28;20027;-89